createdAt,value
2022-09-24T00:01:17.632Z,0.75
2022-09-24T00:03:20.168Z,0.70
2022-09-24T00:05:22.121Z,0.60
2022-09-24T00:07:23.571Z,0.82
2022-09-24T00:09:25.126Z,1.20
2022-09-24T00:11:27.669Z,0.90
2022-09-24T00:13:29.428Z,1.10
2022-09-24T00:15:31.502Z,0.70
2022-09-24T00:17:32.885Z,0.85
2022-09-24T00:19:34.601Z,0.85
2022-09-24T00:21:37.303Z,1.23
2022-09-24T00:23:39.181Z,1.50
2022-09-24T00:25:59.967Z,1.23
2022-09-24T00:28:01.547Z,1.13
2022-09-24T00:30:02.967Z,0.70
2022-09-24T00:32:05.045Z,0.70
2022-09-24T00:34:06.530Z,1.40
2022-09-24T00:36:08.009Z,1.10
2022-09-24T00:38:09.413Z,1.05
2022-09-24T00:40:10.874Z,1.13
2022-09-24T00:42:13.000Z,1.05
2022-09-24T00:44:33.287Z,1.23
2022-09-24T00:46:42.451Z,1.45
2022-09-24T00:48:44.258Z,1.02
2022-09-24T00:50:46.065Z,1.02
2022-09-24T00:53:13.945Z,0.85
2022-09-24T00:55:16.497Z,1.10
2022-09-24T00:57:18.247Z,1.90
2022-09-24T00:59:22.263Z,0.70
2022-09-24T01:01:24.455Z,1.10
2022-09-24T01:03:26.677Z,0.82
2022-09-24T01:05:28.459Z,1.42
2022-09-24T01:07:30.014Z,1.33
2022-09-24T01:09:31.468Z,1.23
2022-09-24T01:11:51.545Z,1.23
2022-09-24T01:13:55.286Z,1.30
2022-09-24T01:16:03.990Z,0.95
2022-09-24T01:18:20.330Z,0.90
2022-09-24T01:20:29.091Z,1.55
2022-09-24T01:22:30.515Z,0.82
2022-09-24T01:24:31.941Z,1.05
2022-09-24T01:26:33.722Z,1.15
2022-09-24T01:28:41.171Z,1.10
2022-09-24T01:30:42.979Z,0.95
2022-09-24T01:32:47.163Z,1.20
2022-09-24T01:35:01.053Z,1.20
2022-09-24T01:37:03.632Z,1.48
2022-09-24T01:39:06.776Z,0.90
2022-09-24T01:41:10.408Z,1.67
2022-09-24T01:43:12.784Z,1.10
2022-09-24T01:45:14.646Z,1.00
2022-09-24T01:47:39.559Z,1.00
2022-09-24T01:51:50.907Z,1.20
2022-09-24T01:53:55.803Z,1.00
2022-09-24T01:56:03.204Z,1.48
2022-09-24T01:58:10.501Z,0.90
2022-09-24T02:00:13.908Z,0.90
2022-09-24T02:02:34.572Z,0.75
2022-09-24T02:04:40.188Z,1.10
2022-09-24T02:06:49.258Z,0.80
2022-09-24T02:08:50.678Z,1.10
2022-09-24T02:10:57.743Z,1.00
2022-09-24T02:13:02.110Z,1.55
2022-09-24T02:15:09.086Z,0.90
2022-09-24T02:17:10.849Z,0.90
2022-09-24T02:19:14.164Z,0.77
2022-09-24T02:21:16.978Z,1.00
2022-09-24T02:23:19.801Z,1.13
2022-09-24T02:25:25.786Z,0.75
2022-09-24T02:27:30.457Z,1.00
2022-09-24T02:29:33.617Z,0.90
2022-09-24T02:31:39.204Z,0.80
2022-09-24T02:34:06.117Z,1.42
2022-09-24T02:36:10.707Z,2.08
2022-09-24T02:38:17.788Z,1.45
2022-09-24T02:40:22.062Z,1.42
2022-09-24T02:42:26.051Z,0.90
2022-09-24T02:44:31.957Z,1.48
2022-09-24T02:46:36.380Z,1.23
2022-09-24T02:48:40.397Z,1.40
2022-09-24T02:50:43.967Z,1.13
2022-09-24T02:52:47.651Z,1.38
2022-09-24T02:56:55.528Z,1.40
2022-09-24T02:58:56.993Z,1.10
2022-09-24T03:00:58.541Z,1.58
2022-09-24T03:03:00.031Z,0.98
2022-09-24T03:05:01.477Z,1.40
2022-09-24T03:07:03.071Z,1.10
2022-09-24T03:09:04.850Z,1.23
2022-09-24T03:11:06.246Z,1.20
2022-09-24T03:13:07.614Z,1.40
2022-09-24T03:15:09.762Z,2.15
2022-09-24T03:17:11.181Z,1.23
2022-09-24T03:19:12.650Z,1.10
2022-09-24T03:21:14.873Z,1.42
2022-09-24T03:23:16.529Z,1.35
2022-09-24T03:25:19.186Z,1.25
2022-09-24T03:27:21.424Z,1.40
2022-09-24T03:29:42.817Z,1.00
2022-09-24T03:31:44.293Z,1.42
2022-09-24T03:33:46.928Z,0.95
2022-09-24T03:35:48.841Z,1.50
2022-09-24T03:37:50.234Z,1.30
2022-09-24T03:39:51.632Z,1.02
2022-09-24T03:41:53.014Z,1.55
2022-09-24T03:43:55.138Z,1.60
2022-09-24T03:45:57.385Z,1.38
2022-09-24T03:47:58.852Z,2.42
2022-09-24T03:50:00.310Z,1.58
2022-09-24T03:52:01.725Z,1.35
2022-09-24T03:54:03.195Z,1.77
2022-09-24T03:56:06.243Z,1.75
2022-09-24T03:58:07.895Z,1.33
2022-09-24T04:00:10.245Z,1.75
2022-09-24T04:02:11.987Z,1.80
2022-09-24T04:04:16.290Z,1.80
2022-09-24T04:06:23.488Z,1.63
2022-09-24T04:08:26.471Z,1.70
2022-09-24T04:10:28.789Z,1.50
2022-09-24T04:12:31.161Z,1.80
2022-09-24T04:14:32.509Z,1.50
2022-09-24T04:16:34.181Z,1.90
2022-09-24T04:18:39.046Z,1.17
2022-09-24T04:20:41.739Z,1.40
2022-09-24T04:22:43.230Z,1.80
2022-09-24T04:24:44.682Z,2.53
2022-09-24T04:26:46.054Z,1.83
2022-09-24T04:28:47.720Z,3.10
2022-09-24T04:30:49.154Z,3.67
2022-09-24T04:32:51.548Z,1.48
2022-09-24T04:34:53.279Z,1.60
2022-09-24T04:36:54.666Z,1.60
2022-09-24T04:38:57.012Z,2.03
2022-09-24T04:41:05.475Z,1.67
2022-09-24T04:43:07.397Z,1.23
2022-09-24T04:45:10.055Z,1.55
2022-09-24T04:47:11.654Z,1.63
2022-09-24T04:49:14.228Z,1.60
2022-09-24T04:51:17.632Z,1.70
2022-09-24T04:53:19.682Z,1.30
2022-09-24T04:55:21.510Z,1.50
2022-09-24T04:57:23.067Z,1.67
2022-09-24T04:59:24.799Z,1.42
2022-09-24T05:01:26.665Z,1.70
2022-09-24T05:03:28.082Z,1.73
2022-09-24T05:05:30.131Z,1.98
2022-09-24T05:07:31.486Z,2.00
2022-09-24T05:09:32.888Z,1.85
2022-09-24T05:11:34.282Z,2.08
2022-09-24T05:13:35.874Z,1.60
2022-09-24T05:15:40.948Z,1.40
2022-09-24T05:17:44.643Z,1.30
2022-09-24T05:19:46.056Z,2.80
2022-09-24T05:21:47.758Z,1.40
2022-09-24T05:23:49.264Z,1.30
2022-09-24T05:26:09.212Z,1.17
2022-09-24T05:28:10.691Z,1.42
2022-09-24T05:30:13.065Z,1.20
2022-09-24T05:32:16.042Z,1.30
2022-09-24T05:34:20.294Z,0.95
2022-09-24T05:36:30.173Z,1.33
2022-09-24T05:38:42.433Z,1.30
2022-09-24T05:40:53.157Z,1.58
2022-09-24T05:43:08.243Z,1.63
2022-09-24T05:45:23.132Z,1.25
2022-09-24T05:47:33.381Z,3.38
2022-09-24T05:49:44.640Z,2.22
2022-09-24T05:51:51.951Z,1.52
2022-09-24T05:54:01.799Z,1.50
2022-09-24T05:56:11.571Z,1.67
2022-09-24T05:58:23.557Z,1.80
2022-09-24T06:00:34.003Z,1.80
2022-09-24T06:02:45.806Z,1.42
2022-09-24T06:04:48.642Z,1.55
2022-09-24T06:06:50.477Z,3.00
2022-09-24T06:08:52.465Z,1.83
2022-09-24T06:10:58.183Z,1.90
2022-09-24T06:12:59.702Z,1.80
2022-09-24T06:15:01.632Z,2.05
2022-09-24T06:17:03.056Z,3.83
2022-09-24T06:19:04.992Z,2.03
2022-09-24T06:21:10.994Z,1.90
2022-09-24T06:23:12.355Z,1.48
2022-09-24T06:25:14.116Z,2.08
2022-09-24T06:27:15.675Z,1.88
2022-09-24T06:29:17.171Z,2.13
2022-09-24T06:31:18.725Z,2.63
2022-09-24T06:33:20.853Z,2.55
2022-09-24T06:35:22.271Z,1.70
2022-09-24T06:37:23.986Z,2.95
2022-09-24T06:39:26.757Z,2.25
2022-09-24T06:41:28.263Z,2.63
2022-09-24T06:43:30.429Z,3.10
2022-09-24T06:45:32.470Z,3.03
2022-09-24T06:47:33.887Z,3.10
2022-09-24T06:49:35.353Z,3.33
2022-09-24T06:51:36.846Z,2.67
2022-09-24T06:53:38.492Z,2.88
2022-09-24T06:55:40.596Z,4.72
2022-09-24T06:57:42.385Z,3.40
2022-09-24T06:59:43.779Z,4.53
2022-09-24T07:01:45.517Z,3.20
2022-09-24T07:03:46.971Z,3.97
2022-09-24T07:05:48.371Z,3.50
2022-09-24T07:07:50.047Z,3.78
2022-09-24T07:09:51.536Z,3.97
2022-09-24T07:11:52.958Z,3.20
2022-09-24T07:13:54.305Z,3.38
2022-09-24T07:15:55.816Z,3.03
2022-09-24T07:17:57.530Z,2.92
2022-09-24T07:19:59.094Z,2.60
2022-09-24T07:24:02.038Z,2.72
2022-09-24T07:28:06.196Z,2.50
2022-09-24T07:30:08.718Z,2.60
2022-09-24T07:32:10.293Z,2.85
2022-09-24T07:34:12.258Z,2.38
2022-09-24T07:36:13.705Z,3.38
2022-09-24T07:38:16.787Z,2.25
2022-09-24T07:40:18.238Z,3.45
2022-09-24T07:42:19.995Z,3.03
2022-09-24T07:44:23.125Z,2.65
2022-09-24T07:46:25.056Z,2.28
2022-09-24T07:48:26.771Z,3.22
2022-09-24T07:50:28.919Z,3.03
2022-09-24T07:52:30.448Z,2.88
2022-09-24T07:54:32.508Z,3.47
2022-09-24T07:56:34.231Z,3.58
2022-09-24T07:58:35.903Z,2.75
2022-09-24T08:00:37.525Z,3.72
2022-09-24T08:02:38.926Z,3.45
2022-09-24T08:04:40.424Z,2.95
2022-09-24T08:06:47.270Z,2.78
2022-09-24T08:08:51.364Z,2.65
2022-09-24T08:10:53.333Z,2.65
2022-09-24T08:12:56.963Z,2.38
2022-09-24T08:14:58.574Z,1.90
2022-09-24T08:17:00.913Z,2.25
2022-09-24T08:19:02.742Z,2.20
2022-09-24T08:21:05.619Z,2.20
2022-09-24T08:23:10.085Z,2.15
2022-09-24T08:25:11.537Z,2.47
2022-09-24T08:27:17.179Z,2.33
2022-09-24T08:29:18.991Z,2.35
2022-09-24T08:31:20.820Z,2.35
2022-09-24T08:33:22.666Z,2.70
2022-09-24T08:35:25.437Z,2.60
2022-09-24T08:37:29.775Z,2.60
2022-09-24T08:39:31.570Z,2.13
2022-09-24T08:41:49.817Z,2.33
2022-09-24T08:44:11.841Z,2.42
2022-09-24T08:46:41.647Z,2.22
2022-09-24T08:48:50.766Z,2.33
2022-09-24T08:51:05.691Z,2.03
2022-09-24T08:53:29.000Z,1.98
2022-09-24T08:55:43.189Z,1.90
2022-09-24T08:58:06.531Z,1.75
2022-09-24T09:00:23.885Z,1.20
2022-09-24T09:02:35.884Z,1.90
2022-09-24T09:04:42.246Z,1.63
2022-09-24T09:07:04.067Z,1.58
2022-09-24T09:09:27.673Z,1.77
2022-09-24T09:11:32.833Z,1.60
2022-09-24T09:13:44.239Z,2.03
2022-09-24T09:15:51.007Z,1.13
2022-09-24T09:17:54.857Z,1.83
2022-09-24T09:19:57.761Z,1.30
2022-09-24T09:22:06.651Z,1.05
2022-09-24T09:24:31.202Z,1.25
2022-09-24T09:26:32.581Z,1.65
2022-09-24T09:28:34.266Z,0.93
2022-09-24T09:30:43.732Z,1.02
2022-09-24T09:32:53.944Z,1.25
2022-09-24T09:35:14.153Z,1.33
2022-09-24T09:37:28.206Z,1.33
2022-09-24T09:39:32.794Z,1.05
2022-09-24T09:41:37.279Z,1.60
2022-09-24T09:43:41.186Z,1.55
2022-09-24T09:46:01.783Z,1.42
2022-09-24T09:48:03.494Z,1.27
2022-09-24T09:50:23.522Z,1.38
2022-09-24T09:52:28.822Z,2.03
2022-09-24T09:54:37.628Z,1.83
2022-09-24T09:56:44.482Z,2.20
2022-09-24T09:58:53.060Z,1.85
2022-09-24T10:01:04.960Z,2.08
2022-09-24T10:03:06.610Z,2.08
2022-09-24T10:05:22.112Z,2.33
2022-09-24T10:07:26.675Z,2.35
2022-09-24T10:09:28.145Z,2.50
2022-09-24T10:11:29.735Z,2.63
2022-09-24T10:13:32.290Z,2.08
2022-09-24T10:15:33.959Z,2.38
2022-09-24T10:17:38.341Z,2.38
2022-09-24T10:19:40.564Z,2.45
2022-09-24T10:21:42.138Z,2.08
2022-09-24T10:23:46.337Z,2.80
2022-09-24T10:25:51.542Z,2.25
2022-09-24T10:27:54.863Z,2.60
2022-09-24T10:30:15.564Z,3.10
2022-09-24T10:32:18.443Z,3.00
2022-09-24T10:34:25.087Z,2.80
2022-09-24T10:36:28.359Z,2.70
2022-09-24T10:38:31.961Z,2.30
2022-09-24T10:40:40.230Z,2.63
2022-09-24T10:42:41.705Z,3.40
2022-09-24T10:44:43.160Z,1.95
2022-09-24T10:47:04.698Z,2.38
2022-09-24T10:49:12.777Z,2.90
2022-09-24T10:51:17.376Z,2.40
2022-09-24T10:53:24.393Z,2.22
2022-09-24T10:55:42.035Z,2.90
2022-09-24T10:57:53.960Z,3.67
2022-09-24T11:00:07.735Z,1.90
2022-09-24T11:02:29.150Z,2.20
2022-09-24T11:04:42.512Z,1.85
2022-09-24T11:06:51.137Z,1.93
2022-09-24T11:09:01.814Z,1.80
2022-09-24T11:11:06.117Z,1.30
2022-09-24T11:13:17.352Z,1.55
2022-09-24T11:15:20.352Z,1.10
2022-09-24T11:17:33.695Z,1.33
2022-09-24T11:19:53.719Z,1.43
2022-09-24T11:21:57.850Z,1.20
2022-09-24T11:24:05.897Z,1.30
2022-09-24T11:26:25.777Z,1.10
2022-09-24T11:28:57.238Z,2.08
2022-09-24T11:31:12.714Z,1.00
2022-09-24T11:33:23.196Z,1.00
2022-09-24T11:35:47.199Z,1.60
2022-09-24T11:37:58.090Z,1.13
2022-09-24T11:39:59.780Z,0.75
2022-09-24T11:42:09.913Z,0.70
2022-09-24T11:44:22.449Z,0.77
2022-09-24T11:46:42.572Z,1.00
2022-09-24T11:49:04.668Z,0.80
2022-09-24T11:51:29.929Z,1.13
2022-09-24T11:53:45.659Z,0.65
2022-09-24T11:56:14.119Z,0.75
2022-09-24T11:58:57.072Z,1.15
2022-09-24T12:01:17.123Z,0.60
2022-09-24T12:05:42.266Z,0.60
2022-09-24T12:07:57.878Z,0.73
2022-09-24T12:10:36.125Z,0.63
2022-09-24T12:12:54.496Z,0.88
2022-09-24T12:15:43.842Z,0.65
2022-09-24T12:17:58.395Z,0.63
2022-09-24T12:20:07.980Z,1.08
2022-09-24T12:22:10.692Z,0.55
2022-09-24T12:24:17.107Z,0.40
2022-09-24T12:35:23.346Z,0.60
2022-09-24T12:37:28.696Z,0.70
2022-09-24T12:39:37.953Z,0.55
2022-09-24T12:41:42.116Z,0.40
2022-09-24T12:43:43.644Z,0.47
2022-09-24T12:45:46.021Z,0.60
2022-09-24T12:47:50.447Z,0.70
2022-09-24T12:49:57.439Z,0.77
2022-09-24T12:52:00.703Z,0.38
2022-09-24T12:54:06.385Z,0.45
2022-09-24T12:56:09.753Z,0.73
2022-09-24T12:58:43.889Z,0.50
2022-09-24T13:00:48.521Z,0.50
2022-09-24T13:02:50.829Z,0.75
2022-09-24T13:05:01.191Z,0.52
2022-09-24T13:07:02.857Z,0.75
2022-09-24T13:09:25.877Z,0.38
2022-09-24T13:11:38.013Z,0.90
2022-09-24T13:13:43.459Z,0.50
2022-09-24T13:15:45.244Z,0.70
2022-09-24T13:17:47.436Z,0.70
2022-09-24T13:19:50.327Z,0.40
2022-09-24T13:21:56.119Z,0.55
2022-09-24T13:23:58.398Z,0.40
2022-09-24T13:26:04.961Z,0.55
2022-09-24T13:28:21.538Z,0.60
2022-09-24T13:30:31.270Z,0.63
2022-09-24T13:32:36.897Z,0.43
2022-09-24T13:34:38.792Z,0.47
2022-09-24T13:36:42.549Z,0.90
2022-09-24T13:38:55.284Z,0.47
2022-09-24T13:41:01.767Z,0.63
2022-09-24T13:43:04.997Z,0.50
2022-09-24T13:45:10.533Z,0.43
2022-09-24T13:47:19.654Z,0.50
2022-09-24T13:49:21.721Z,0.40
2022-09-24T13:51:28.582Z,0.50
2022-09-24T13:53:37.105Z,0.55
2022-09-24T13:55:45.776Z,0.50
2022-09-24T13:57:47.656Z,0.60
2022-09-24T13:59:49.255Z,0.40
2022-09-24T14:01:50.804Z,0.63
2022-09-24T14:04:03.414Z,0.45
2022-09-24T14:06:15.583Z,0.25
2022-09-24T14:08:17.885Z,0.43
2022-09-24T14:10:19.314Z,0.30
2022-09-24T14:12:22.014Z,0.40
2022-09-24T14:14:25.037Z,0.55
2022-09-24T14:16:26.829Z,0.40
2022-09-24T14:18:28.927Z,0.50
2022-09-24T14:20:34.211Z,0.45
2022-09-24T14:22:38.994Z,0.38
2022-09-24T14:24:55.447Z,0.70
2022-09-24T14:26:57.160Z,0.50
2022-09-24T14:29:00.737Z,0.43
2022-09-24T14:31:02.634Z,0.60
2022-09-24T14:33:12.047Z,0.70
2022-09-24T14:35:39.770Z,0.60
2022-09-24T14:37:46.567Z,0.70
2022-09-24T14:39:49.443Z,0.32
2022-09-24T14:41:51.864Z,0.60
2022-09-24T14:43:54.941Z,0.30
2022-09-24T14:46:09.566Z,0.57
2022-09-24T14:48:17.159Z,0.35
2022-09-24T14:50:35.337Z,0.30
2022-09-24T14:52:46.343Z,0.50
2022-09-24T14:55:26.287Z,0.40
2022-09-24T14:57:48.272Z,0.82
2022-09-24T15:00:06.422Z,0.47
2022-09-24T15:02:34.960Z,0.30
2022-09-24T15:05:05.913Z,0.68
2022-09-24T15:07:31.351Z,0.30
2022-09-24T15:09:53.913Z,0.50
2022-09-24T15:12:47.195Z,0.35
2022-09-24T15:15:16.620Z,0.38
2022-09-24T15:17:47.696Z,0.30
2022-09-24T15:20:02.654Z,0.45
2022-09-24T15:22:29.939Z,0.35
2022-09-24T15:24:35.491Z,0.40
2022-09-24T15:26:38.786Z,0.55
2022-09-24T15:28:40.229Z,0.40
2022-09-24T15:30:42.515Z,0.77
2022-09-24T15:32:43.951Z,0.30
2022-09-24T15:34:45.689Z,0.50
2022-09-24T15:36:59.055Z,0.30
2022-09-24T15:39:01.700Z,0.40
2022-09-24T15:41:03.148Z,0.50
2022-09-24T15:43:05.799Z,0.20
2022-09-24T15:45:15.210Z,0.50
2022-09-24T15:47:17.582Z,0.40
2022-09-24T15:49:22.890Z,0.30
2022-09-24T15:51:24.479Z,0.60
2022-09-24T15:53:26.925Z,0.40
2022-09-24T15:55:28.837Z,0.50
2022-09-24T15:57:30.275Z,0.50
2022-09-24T15:59:31.959Z,0.60
2022-09-24T16:01:33.474Z,0.70
2022-09-24T16:03:35.037Z,0.50
2022-09-24T16:05:36.547Z,0.52
2022-09-24T16:07:38.242Z,0.50
2022-09-24T16:09:40.872Z,0.63
2022-09-24T16:11:42.321Z,0.30
2022-09-24T16:13:43.810Z,0.63
2022-09-24T16:15:46.058Z,0.50
2022-09-24T16:17:49.861Z,0.40
2022-09-24T16:19:51.737Z,0.50
2022-09-24T16:21:53.154Z,0.60
2022-09-24T16:23:55.633Z,0.35
2022-09-24T16:25:58.567Z,0.40
2022-09-24T16:28:00.213Z,0.80
2022-09-24T16:30:02.300Z,0.80
2022-09-24T16:32:03.974Z,0.50
2022-09-24T16:34:05.524Z,0.52
2022-09-24T16:36:07.930Z,0.60
2022-09-24T16:38:09.503Z,0.40
2022-09-24T16:40:11.139Z,0.77
2022-09-24T16:42:12.611Z,0.60
2022-09-24T16:44:15.138Z,0.30
2022-09-24T16:46:20.609Z,0.60
2022-09-24T16:48:22.350Z,0.60
2022-09-24T16:50:23.862Z,0.50
2022-09-24T16:52:25.275Z,0.50
2022-09-24T16:54:29.647Z,0.50
2022-09-24T16:56:31.387Z,0.80
2022-09-24T16:58:33.235Z,0.70
2022-09-24T17:00:35.207Z,0.40
2022-09-24T17:02:37.363Z,0.60
2022-09-24T17:04:39.818Z,0.80
2022-09-24T17:06:44.540Z,0.50
2022-09-24T17:09:15.289Z,0.40
2022-09-24T17:11:17.165Z,0.80
2022-09-24T17:13:18.777Z,0.57
2022-09-24T17:15:20.808Z,0.50
2022-09-24T17:17:22.421Z,0.50
2022-09-24T17:19:23.945Z,0.80
2022-09-24T17:21:25.397Z,0.75
2022-09-24T17:23:27.034Z,0.45
2022-09-24T17:25:28.533Z,0.80
2022-09-24T17:27:31.872Z,0.65
2022-09-24T17:29:33.392Z,1.00
2022-09-24T17:31:35.136Z,0.50
2022-09-24T17:33:43.323Z,0.68
2022-09-24T17:35:53.500Z,1.10
2022-09-24T17:37:55.279Z,0.77
2022-09-24T17:39:56.976Z,0.77
2022-09-24T17:41:58.813Z,0.82
2022-09-24T17:44:00.694Z,1.13
2022-09-24T17:46:03.654Z,0.73
2022-09-24T17:48:06.034Z,0.68
2022-09-24T17:50:10.078Z,0.77
2022-09-24T17:54:15.990Z,1.15
2022-09-24T17:56:17.487Z,0.85
2022-09-24T17:58:22.073Z,0.65
2022-09-24T18:00:32.906Z,0.90
2022-09-24T18:02:48.076Z,1.00
2022-09-24T18:04:58.429Z,1.00
2022-09-24T18:07:09.348Z,1.10
2022-09-24T18:09:22.101Z,1.23
2022-09-24T18:11:33.985Z,1.67
2022-09-24T18:13:44.105Z,1.45
2022-09-24T18:15:56.074Z,1.30
2022-09-24T18:18:12.133Z,0.88
2022-09-24T18:20:27.514Z,1.05
2022-09-24T18:22:37.735Z,1.15
2022-09-24T18:24:48.307Z,1.52
2022-09-24T18:26:55.615Z,0.90
2022-09-24T18:29:08.415Z,1.63
2022-09-24T18:31:13.079Z,0.98
2022-09-24T18:33:14.736Z,1.33
2022-09-24T18:35:16.191Z,1.45
2022-09-24T18:37:17.754Z,1.20
2022-09-24T18:39:25.030Z,0.95
2022-09-24T18:41:28.269Z,2.67
2022-09-24T18:43:31.128Z,1.38
2022-09-24T18:45:33.975Z,1.33
2022-09-24T18:47:37.646Z,1.00
2022-09-24T18:49:39.075Z,1.02
2022-09-24T18:51:40.733Z,1.10
2022-09-24T18:53:42.166Z,1.13
2022-09-24T18:55:43.537Z,1.45
2022-09-24T18:57:45.023Z,1.60
2022-09-24T18:59:47.010Z,1.33
2022-09-24T19:01:50.740Z,1.50
2022-09-24T19:05:55.787Z,1.52
2022-09-24T19:07:57.642Z,2.10
2022-09-24T19:09:59.511Z,1.63
2022-09-24T19:12:01.366Z,1.55
2022-09-24T19:14:02.981Z,1.95
2022-09-24T19:16:08.546Z,1.80
2022-09-24T19:18:12.673Z,1.23
2022-09-24T19:22:16.101Z,1.08
2022-09-24T19:24:18.611Z,1.85
2022-09-24T19:26:21.378Z,2.88
2022-09-24T19:28:22.819Z,2.60
2022-09-24T19:30:24.385Z,2.78
2022-09-24T19:32:25.873Z,2.25
2022-09-24T19:34:27.706Z,2.22
2022-09-24T19:36:29.332Z,1.83
2022-09-24T19:38:32.158Z,1.52
2022-09-24T19:40:33.664Z,1.40
2022-09-24T19:42:35.260Z,1.38
2022-09-24T19:44:36.886Z,1.13
2022-09-24T19:46:38.803Z,1.27
2022-09-24T19:48:41.666Z,1.30
2022-09-24T19:50:43.195Z,1.38
2022-09-24T19:52:44.851Z,1.40
2022-09-24T19:54:49.687Z,1.90
2022-09-24T19:56:51.118Z,1.40
2022-09-24T19:58:54.138Z,1.88
2022-09-24T20:01:00.166Z,1.75
2022-09-24T20:03:01.561Z,1.38
2022-09-24T20:05:03.199Z,1.55
2022-09-24T20:07:06.050Z,1.33
2022-09-24T20:09:08.053Z,1.42
2022-09-24T20:11:10.885Z,1.13
2022-09-24T20:13:12.594Z,1.52
2022-09-24T20:15:13.985Z,1.40
2022-09-24T20:17:15.955Z,1.65
2022-09-24T20:19:17.897Z,1.50
2022-09-24T20:21:19.499Z,1.83
2022-09-24T20:23:23.955Z,2.42
2022-09-24T20:25:45.662Z,1.80
2022-09-24T20:27:53.279Z,1.50
2022-09-24T20:29:54.810Z,1.63
2022-09-24T20:31:56.885Z,1.10
2022-09-24T20:33:59.468Z,2.60
2022-09-24T20:36:02.327Z,2.10
2022-09-24T20:38:04.159Z,1.92
2022-09-24T20:40:06.310Z,2.28
2022-09-24T20:42:07.948Z,1.70
2022-09-24T20:44:09.692Z,1.30
2022-09-24T20:46:14.155Z,1.48
2022-09-24T20:48:15.926Z,1.13
2022-09-24T20:50:18.178Z,0.68
2022-09-24T20:52:20.475Z,1.15
2022-09-24T20:54:22.246Z,1.30
2022-09-24T20:56:23.744Z,1.00
2022-09-24T20:58:25.263Z,1.02
2022-09-24T21:00:34.009Z,0.60
2022-09-24T21:02:39.242Z,0.70
2022-09-24T21:04:45.745Z,0.98
2022-09-24T21:06:50.005Z,0.70
2022-09-24T21:11:08.984Z,0.57
2022-09-24T21:16:37.912Z,0.70
2022-09-24T21:18:49.978Z,0.43
2022-09-24T21:20:56.409Z,0.80
2022-09-24T21:23:06.164Z,0.70
2022-09-24T21:25:30.407Z,0.55
2022-09-24T21:27:44.253Z,0.60
2022-09-24T21:29:50.999Z,1.42
2022-09-24T21:31:58.403Z,0.98
2022-09-24T21:34:07.827Z,0.85
2022-09-24T21:36:11.829Z,0.88
2022-09-24T21:38:14.172Z,0.52
2022-09-24T21:40:16.103Z,0.88
2022-09-24T21:42:19.873Z,0.63
2022-09-24T21:44:21.853Z,0.73
2022-09-24T21:46:24.093Z,0.68
2022-09-24T21:48:26.593Z,0.65
2022-09-24T21:50:28.199Z,0.60
2022-09-24T21:52:31.032Z,0.50
2022-09-24T21:54:33.555Z,0.60
2022-09-24T21:56:35.505Z,0.90
2022-09-24T21:58:37.090Z,0.90
2022-09-24T22:00:38.652Z,0.47
2022-09-24T22:02:43.432Z,0.65
2022-09-24T22:04:45.152Z,0.60
2022-09-24T22:06:48.314Z,0.63
2022-09-24T22:08:50.386Z,0.60
2022-09-24T22:10:59.413Z,0.70
2022-09-24T22:13:01.555Z,0.40
2022-09-24T22:15:03.181Z,0.60
2022-09-24T22:17:05.876Z,0.63
2022-09-24T22:19:07.848Z,0.55
2022-09-24T22:21:11.298Z,0.55
2022-09-24T22:23:13.088Z,0.50
2022-09-24T22:25:14.590Z,0.68
2022-09-24T22:27:16.366Z,0.70
2022-09-24T22:29:17.921Z,0.65
2022-09-24T22:31:19.606Z,0.50
2022-09-24T22:33:40.288Z,0.55
2022-09-24T22:35:49.048Z,0.80
2022-09-24T22:37:51.466Z,0.93
2022-09-24T22:39:52.878Z,0.70
2022-09-24T22:41:54.354Z,1.15
2022-09-24T22:43:57.029Z,0.90
2022-09-24T22:45:59.221Z,0.88
2022-09-24T22:48:01.099Z,0.90
2022-09-24T22:50:02.818Z,0.82
2022-09-24T22:52:04.211Z,0.60
2022-09-24T22:54:06.135Z,0.52
2022-09-24T22:56:09.310Z,0.70
2022-09-24T22:58:11.036Z,1.15
2022-09-24T23:00:12.921Z,0.80
2022-09-24T23:02:14.435Z,0.70
2022-09-24T23:04:15.846Z,0.65
2022-09-24T23:06:17.789Z,0.70
2022-09-24T23:08:19.192Z,0.85
2022-09-24T23:10:20.581Z,0.65
2022-09-24T23:12:22.001Z,0.60
2022-09-24T23:14:23.655Z,0.73
2022-09-24T23:16:29.780Z,0.85
2022-09-24T23:18:31.303Z,0.50
2022-09-24T23:20:32.687Z,0.55
2022-09-24T23:22:34.374Z,0.60
2022-09-24T23:24:35.934Z,0.85
2022-09-24T23:26:37.485Z,0.73
2022-09-24T23:28:39.621Z,0.80
2022-09-24T23:30:41.214Z,0.90
2022-09-24T23:32:42.753Z,0.52
2022-09-24T23:34:44.518Z,0.68
2022-09-24T23:36:46.122Z,0.90
2022-09-24T23:38:47.633Z,0.80
2022-09-24T23:40:50.914Z,0.90
2022-09-24T23:42:52.751Z,0.93
2022-09-24T23:44:54.222Z,0.63
2022-09-24T23:46:56.538Z,1.90
2022-09-24T23:48:57.953Z,1.40
2022-09-24T23:50:59.787Z,1.20
2022-09-24T23:53:01.198Z,0.60
2022-09-24T23:55:02.916Z,0.50
2022-09-24T23:57:06.887Z,0.75
2022-09-24T23:59:08.486Z,1.10
